sensor_id;sensor_type;location;lat;lon;timestamp;P1;durP1;ratioP1;P2;durP2;ratioP2
54699;SDS011;40599;53.132;6.090;2022-08-19T00:00:16;13.17;;;10.67;;
54699;SDS011;40599;53.132;6.090;2022-08-19T00:02:43;13.55;;;10.90;;
54699;SDS011;40599;53.132;6.090;2022-08-19T00:05:09;14.02;;;9.88;;
54699;SDS011;40599;53.132;6.090;2022-08-19T00:07:35;16.92;;;12.13;;
54699;SDS011;40599;53.132;6.090;2022-08-19T00:12:30;14.45;;;9.63;;
54699;SDS011;40599;53.132;6.090;2022-08-19T00:14:56;15.00;;;11.33;;
54699;SDS011;40599;53.132;6.090;2022-08-19T00:17:21;19.87;;;13.73;;
54699;SDS011;40599;53.132;6.090;2022-08-19T00:19:47;16.30;;;10.83;;
54699;SDS011;40599;53.132;6.090;2022-08-19T00:22:13;13.30;;;10.60;;
54699;SDS011;40599;53.132;6.090;2022-08-19T00:24:39;19.80;;;12.45;;
54699;SDS011;40599;53.132;6.090;2022-08-19T00:27:06;18.95;;;12.82;;
54699;SDS011;40599;53.132;6.090;2022-08-19T00:29:31;13.83;;;10.50;;
54699;SDS011;40599;53.132;6.090;2022-08-19T00:31:57;17.30;;;12.33;;
54699;SDS011;40599;53.132;6.090;2022-08-19T00:34:25;14.53;;;12.63;;
54699;SDS011;40599;53.132;6.090;2022-08-19T00:36:54;18.83;;;12.87;;
54699;SDS011;40599;53.132;6.090;2022-08-19T00:39:20;19.13;;;12.60;;
54699;SDS011;40599;53.132;6.090;2022-08-19T00:41:46;13.23;;;11.03;;
54699;SDS011;40599;53.132;6.090;2022-08-19T00:44:17;16.90;;;11.20;;
54699;SDS011;40599;53.132;6.090;2022-08-19T00:46:49;12.83;;;9.47;;
54699;SDS011;40599;53.132;6.090;2022-08-19T00:49:22;12.27;;;8.87;;
54699;SDS011;40599;53.132;6.090;2022-08-19T00:52:15;12.30;;;9.80;;
54699;SDS011;40599;53.132;6.090;2022-08-19T00:54:41;19.87;;;12.73;;
54699;SDS011;40599;53.132;6.090;2022-08-19T00:57:10;18.43;;;11.93;;
54699;SDS011;40599;53.132;6.090;2022-08-19T00:59:38;17.00;;;12.83;;
54699;SDS011;40599;53.132;6.090;2022-08-19T01:02:06;12.97;;;11.60;;
54699;SDS011;40599;53.132;6.090;2022-08-19T01:04:32;14.13;;;11.48;;
54699;SDS011;40599;53.132;6.090;2022-08-19T01:06:58;17.83;;;12.87;;
54699;SDS011;40599;53.132;6.090;2022-08-19T01:09:24;17.10;;;11.93;;
54699;SDS011;40599;53.132;6.090;2022-08-19T01:11:50;11.43;;;9.63;;
54699;SDS011;40599;53.132;6.090;2022-08-19T01:16:43;11.03;;;9.60;;
54699;SDS011;40599;53.132;6.090;2022-08-19T01:19:19;14.83;;;11.67;;
54699;SDS011;40599;53.132;6.090;2022-08-19T01:22:01;13.87;;;11.07;;
54699;SDS011;40599;53.132;6.090;2022-08-19T01:24:30;20.17;;;12.77;;
54699;SDS011;40599;53.132;6.090;2022-08-19T01:26:57;13.18;;;11.07;;
54699;SDS011;40599;53.132;6.090;2022-08-19T01:29:23;18.10;;;11.98;;
54699;SDS011;40599;53.132;6.090;2022-08-19T01:31:49;16.45;;;11.75;;
54699;SDS011;40599;53.132;6.090;2022-08-19T01:34:17;12.93;;;9.93;;
54699;SDS011;40599;53.132;6.090;2022-08-19T01:36:44;11.67;;;9.53;;
54699;SDS011;40599;53.132;6.090;2022-08-19T01:39:20;11.47;;;9.67;;
54699;SDS011;40599;53.132;6.090;2022-08-19T01:41:48;11.93;;;9.53;;
54699;SDS011;40599;53.132;6.090;2022-08-19T01:44:15;14.27;;;8.50;;
54699;SDS011;40599;53.132;6.090;2022-08-19T01:46:42;12.43;;;8.93;;
54699;SDS011;40599;53.132;6.090;2022-08-19T01:49:09;11.53;;;8.73;;
54699;SDS011;40599;53.132;6.090;2022-08-19T01:51:35;9.90;;;8.00;;
54699;SDS011;40599;53.132;6.090;2022-08-19T01:54:02;12.35;;;7.90;;
54699;SDS011;40599;53.132;6.090;2022-08-19T01:56:28;9.65;;;8.55;;
54699;SDS011;40599;53.132;6.090;2022-08-19T01:58:55;9.50;;;8.50;;
54699;SDS011;40599;53.132;6.090;2022-08-19T02:01:25;12.27;;;8.53;;
54699;SDS011;40599;53.132;6.090;2022-08-19T02:03:51;11.73;;;8.63;;
54699;SDS011;40599;53.132;6.090;2022-08-19T02:06:18;9.30;;;8.10;;
54699;SDS011;40599;53.132;6.090;2022-08-19T02:08:44;9.80;;;8.02;;
54699;SDS011;40599;53.132;6.090;2022-08-19T02:11:18;10.47;;;8.10;;
54699;SDS011;40599;53.132;6.090;2022-08-19T02:13:46;15.20;;;10.97;;
54699;SDS011;40599;53.132;6.090;2022-08-19T02:16:12;9.53;;;8.27;;
54699;SDS011;40599;53.132;6.090;2022-08-19T02:18:37;11.53;;;8.53;;
54699;SDS011;40599;53.132;6.090;2022-08-19T02:21:03;9.70;;;7.90;;
54699;SDS011;40599;53.132;6.090;2022-08-19T02:23:29;15.93;;;12.03;;
54699;SDS011;40599;53.132;6.090;2022-08-19T02:25:56;15.27;;;10.67;;
54699;SDS011;40599;53.132;6.090;2022-08-19T02:28:22;14.67;;;10.40;;
54699;SDS011;40599;53.132;6.090;2022-08-19T02:30:47;14.77;;;11.27;;
54699;SDS011;40599;53.132;6.090;2022-08-19T02:33:13;15.18;;;11.57;;
54699;SDS011;40599;53.132;6.090;2022-08-19T02:35:46;20.60;;;13.35;;
54699;SDS011;40599;53.132;6.090;2022-08-19T02:38:12;18.60;;;13.10;;
54699;SDS011;40599;53.132;6.090;2022-08-19T02:40:55;16.50;;;12.37;;
54699;SDS011;40599;53.132;6.090;2022-08-19T02:43:22;22.13;;;14.73;;
54699;SDS011;40599;53.132;6.090;2022-08-19T02:45:49;21.43;;;14.40;;
54699;SDS011;40599;53.132;6.090;2022-08-19T02:48:17;19.98;;;13.77;;
54699;SDS011;40599;53.132;6.090;2022-08-19T02:50:44;23.70;;;14.73;;
54699;SDS011;40599;53.132;6.090;2022-08-19T02:53:11;22.50;;;14.15;;
54699;SDS011;40599;53.132;6.090;2022-08-19T02:55:42;21.85;;;14.18;;
54699;SDS011;40599;53.132;6.090;2022-08-19T02:58:10;19.53;;;14.17;;
54699;SDS011;40599;53.132;6.090;2022-08-19T03:00:35;21.35;;;14.00;;
54699;SDS011;40599;53.132;6.090;2022-08-19T03:03:07;20.07;;;15.13;;
54699;SDS011;40599;53.132;6.090;2022-08-19T03:05:33;25.53;;;15.60;;
54699;SDS011;40599;53.132;6.090;2022-08-19T03:07:59;22.83;;;14.77;;
54699;SDS011;40599;53.132;6.090;2022-08-19T03:10:24;25.27;;;15.67;;
54699;SDS011;40599;53.132;6.090;2022-08-19T03:12:50;19.83;;;13.97;;
54699;SDS011;40599;53.132;6.090;2022-08-19T03:15:16;22.07;;;14.73;;
54699;SDS011;40599;53.132;6.090;2022-08-19T03:17:42;23.33;;;14.97;;
54699;SDS011;40599;53.132;6.090;2022-08-19T03:20:07;18.43;;;13.00;;
54699;SDS011;40599;53.132;6.090;2022-08-19T03:22:33;21.45;;;13.75;;
54699;SDS011;40599;53.132;6.090;2022-08-19T03:24:59;21.87;;;14.27;;
54699;SDS011;40599;53.132;6.090;2022-08-19T03:27:25;21.33;;;13.50;;
54699;SDS011;40599;53.132;6.090;2022-08-19T03:29:51;23.37;;;14.30;;
54699;SDS011;40599;53.132;6.090;2022-08-19T03:32:16;19.33;;;13.43;;
54699;SDS011;40599;53.132;6.090;2022-08-19T03:34:42;18.30;;;13.00;;
54699;SDS011;40599;53.132;6.090;2022-08-19T03:37:09;18.00;;;13.13;;
54699;SDS011;40599;53.132;6.090;2022-08-19T03:39:39;16.37;;;12.30;;
54699;SDS011;40599;53.132;6.090;2022-08-19T03:42:05;18.52;;;13.48;;
54699;SDS011;40599;53.132;6.090;2022-08-19T03:44:32;28.08;;;14.63;;
54699;SDS011;40599;53.132;6.090;2022-08-19T03:46:58;19.90;;;14.27;;
54699;SDS011;40599;53.132;6.090;2022-08-19T03:49:26;21.63;;;13.82;;
54699;SDS011;40599;53.132;6.090;2022-08-19T03:51:54;19.97;;;12.80;;
54699;SDS011;40599;53.132;6.090;2022-08-19T03:54:22;17.70;;;13.20;;
54699;SDS011;40599;53.132;6.090;2022-08-19T03:56:50;22.80;;;15.20;;
54699;SDS011;40599;53.132;6.090;2022-08-19T03:59:19;21.90;;;14.83;;
54699;SDS011;40599;53.132;6.090;2022-08-19T04:01:50;19.20;;;14.23;;
54699;SDS011;40599;53.132;6.090;2022-08-19T04:04:16;22.88;;;14.88;;
54699;SDS011;40599;53.132;6.090;2022-08-19T04:06:42;24.47;;;15.43;;
54699;SDS011;40599;53.132;6.090;2022-08-19T04:11:36;22.77;;;14.17;;
54699;SDS011;40599;53.132;6.090;2022-08-19T04:14:07;23.60;;;15.00;;
54699;SDS011;40599;53.132;6.090;2022-08-19T04:16:37;25.90;;;16.00;;
54699;SDS011;40599;53.132;6.090;2022-08-19T04:19:03;20.57;;;14.27;;
54699;SDS011;40599;53.132;6.090;2022-08-19T04:21:31;18.67;;;14.03;;
54699;SDS011;40599;53.132;6.090;2022-08-19T04:23:57;19.83;;;14.05;;
54699;SDS011;40599;53.132;6.090;2022-08-19T04:26:25;22.85;;;15.05;;
54699;SDS011;40599;53.132;6.090;2022-08-19T04:28:53;20.73;;;15.17;;
54699;SDS011;40599;53.132;6.090;2022-08-19T04:31:23;21.50;;;13.20;;
54699;SDS011;40599;53.132;6.090;2022-08-19T04:33:55;18.73;;;14.00;;
54699;SDS011;40599;53.132;6.090;2022-08-19T04:36:26;21.27;;;14.43;;
54699;SDS011;40599;53.132;6.090;2022-08-19T04:38:55;28.90;;;16.53;;
54699;SDS011;40599;53.132;6.090;2022-08-19T04:41:23;21.43;;;15.17;;
54699;SDS011;40599;53.132;6.090;2022-08-19T04:44:08;22.93;;;14.90;;
54699;SDS011;40599;53.132;6.090;2022-08-19T04:46:33;20.47;;;14.80;;
54699;SDS011;40599;53.132;6.090;2022-08-19T04:49:00;24.33;;;15.60;;
54699;SDS011;40599;53.132;6.090;2022-08-19T04:51:27;19.73;;;14.17;;
54699;SDS011;40599;53.132;6.090;2022-08-19T04:53:56;21.60;;;15.60;;
54699;SDS011;40599;53.132;6.090;2022-08-19T04:56:22;23.80;;;15.07;;
54699;SDS011;40599;53.132;6.090;2022-08-19T04:58:51;22.10;;;16.17;;
54699;SDS011;40599;53.132;6.090;2022-08-19T05:01:18;25.38;;;16.63;;
54699;SDS011;40599;53.132;6.090;2022-08-19T05:03:45;26.00;;;16.70;;
54699;SDS011;40599;53.132;6.090;2022-08-19T05:06:12;26.83;;;17.47;;
54699;SDS011;40599;53.132;6.090;2022-08-19T05:08:40;24.73;;;16.10;;
54699;SDS011;40599;53.132;6.090;2022-08-19T05:11:30;27.83;;;18.27;;
54699;SDS011;40599;53.132;6.090;2022-08-19T05:13:56;23.27;;;16.43;;
54699;SDS011;40599;53.132;6.090;2022-08-19T05:16:23;23.08;;;17.00;;
54699;SDS011;40599;53.132;6.090;2022-08-19T05:18:50;24.50;;;16.50;;
54699;SDS011;40599;53.132;6.090;2022-08-19T05:21:34;25.00;;;15.97;;
54699;SDS011;40599;53.132;6.090;2022-08-19T05:24:19;28.77;;;17.50;;
54699;SDS011;40599;53.132;6.090;2022-08-19T05:26:47;28.33;;;18.07;;
54699;SDS011;40599;53.132;6.090;2022-08-19T05:29:15;26.87;;;17.90;;
54699;SDS011;40599;53.132;6.090;2022-08-19T05:31:44;30.33;;;18.90;;
54699;SDS011;40599;53.132;6.090;2022-08-19T05:36:37;27.63;;;16.50;;
54699;SDS011;40599;53.132;6.090;2022-08-19T05:39:09;27.10;;;17.77;;
54699;SDS011;40599;53.132;6.090;2022-08-19T05:41:41;30.80;;;18.10;;
54699;SDS011;40599;53.132;6.090;2022-08-19T05:44:08;29.13;;;17.40;;
54699;SDS011;40599;53.132;6.090;2022-08-19T05:46:35;30.90;;;17.77;;
54699;SDS011;40599;53.132;6.090;2022-08-19T05:49:03;26.23;;;16.93;;
54699;SDS011;40599;53.132;6.090;2022-08-19T05:51:33;26.83;;;18.17;;
54699;SDS011;40599;53.132;6.090;2022-08-19T05:54:04;27.47;;;17.13;;
54699;SDS011;40599;53.132;6.090;2022-08-19T05:56:31;27.20;;;18.00;;
54699;SDS011;40599;53.132;6.090;2022-08-19T05:58:57;29.50;;;17.52;;
54699;SDS011;40599;53.132;6.090;2022-08-19T06:01:24;23.48;;;16.63;;
54699;SDS011;40599;53.132;6.090;2022-08-19T06:03:51;25.97;;;16.93;;
54699;SDS011;40599;53.132;6.090;2022-08-19T06:06:18;27.25;;;16.33;;
54699;SDS011;40599;53.132;6.090;2022-08-19T06:08:44;24.80;;;16.97;;
54699;SDS011;40599;53.132;6.090;2022-08-19T06:11:19;26.10;;;16.93;;
54699;SDS011;40599;53.132;6.090;2022-08-19T06:13:49;25.30;;;16.63;;
54699;SDS011;40599;53.132;6.090;2022-08-19T06:16:20;21.00;;;15.33;;
54699;SDS011;40599;53.132;6.090;2022-08-19T06:18:56;25.10;;;16.87;;
54699;SDS011;40599;53.132;6.090;2022-08-19T06:21:25;22.88;;;15.85;;
54699;SDS011;40599;53.132;6.090;2022-08-19T06:23:53;25.70;;;17.03;;
54699;SDS011;40599;53.132;6.090;2022-08-19T06:26:21;24.13;;;16.50;;
54699;SDS011;40599;53.132;6.090;2022-08-19T06:28:48;23.37;;;16.70;;
54699;SDS011;40599;53.132;6.090;2022-08-19T06:31:18;21.97;;;16.43;;
54699;SDS011;40599;53.132;6.090;2022-08-19T06:33:47;22.67;;;17.43;;
54699;SDS011;40599;53.132;6.090;2022-08-19T06:38:56;30.83;;;18.23;;
54699;SDS011;40599;53.132;6.090;2022-08-19T06:41:27;24.20;;;17.47;;
54699;SDS011;40599;53.132;6.090;2022-08-19T06:43:54;27.67;;;18.07;;
54699;SDS011;40599;53.132;6.090;2022-08-19T06:46:21;25.00;;;17.93;;
54699;SDS011;40599;53.132;6.090;2022-08-19T06:48:47;25.38;;;17.38;;
54699;SDS011;40599;53.132;6.090;2022-08-19T06:51:14;27.08;;;18.00;;
54699;SDS011;40599;53.132;6.090;2022-08-19T06:53:44;25.90;;;18.37;;
54699;SDS011;40599;53.132;6.090;2022-08-19T06:56:14;25.40;;;17.60;;
54699;SDS011;40599;53.132;6.090;2022-08-19T06:58:42;22.90;;;17.30;;
54699;SDS011;40599;53.132;6.090;2022-08-19T07:01:08;26.13;;;18.30;;
54699;SDS011;40599;53.132;6.090;2022-08-19T07:03:35;23.40;;;17.95;;
54699;SDS011;40599;53.132;6.090;2022-08-19T07:06:02;21.60;;;16.77;;
54699;SDS011;40599;53.132;6.090;2022-08-19T07:08:29;25.73;;;18.17;;
54699;SDS011;40599;53.132;6.090;2022-08-19T07:10:55;23.03;;;17.47;;
54699;SDS011;40599;53.132;6.090;2022-08-19T07:13:21;22.60;;;17.40;;
54699;SDS011;40599;53.132;6.090;2022-08-19T07:15:48;23.13;;;17.17;;
54699;SDS011;40599;53.132;6.090;2022-08-19T07:18:15;22.43;;;16.77;;
54699;SDS011;40599;53.132;6.090;2022-08-19T07:20:45;25.07;;;16.83;;
54699;SDS011;40599;53.132;6.090;2022-08-19T07:23:12;24.10;;;16.33;;
54699;SDS011;40599;53.132;6.090;2022-08-19T07:25:38;21.20;;;16.23;;
54699;SDS011;40599;53.132;6.090;2022-08-19T07:28:04;20.65;;;15.98;;
54699;SDS011;40599;53.132;6.090;2022-08-19T07:30:30;20.98;;;15.43;;
54699;SDS011;40599;53.132;6.090;2022-08-19T07:32:56;18.73;;;14.80;;
54699;SDS011;40599;53.132;6.090;2022-08-19T07:35:22;19.02;;;15.05;;
54699;SDS011;40599;53.132;6.090;2022-08-19T07:37:48;19.40;;;14.95;;
54699;SDS011;40599;53.132;6.090;2022-08-19T07:40:14;21.02;;;16.10;;
54699;SDS011;40599;53.132;6.090;2022-08-19T07:42:40;18.25;;;15.65;;
54699;SDS011;40599;53.132;6.090;2022-08-19T07:45:07;20.85;;;15.52;;
54699;SDS011;40599;53.132;6.090;2022-08-19T07:47:33;22.77;;;16.38;;
54699;SDS011;40599;53.132;6.090;2022-08-19T07:49:59;20.65;;;16.15;;
54699;SDS011;40599;53.132;6.090;2022-08-19T07:52:25;21.15;;;17.10;;
54699;SDS011;40599;53.132;6.090;2022-08-19T07:54:50;24.63;;;16.83;;
54699;SDS011;40599;53.132;6.090;2022-08-19T07:57:16;23.60;;;16.37;;
54699;SDS011;40599;53.132;6.090;2022-08-19T07:59:44;22.10;;;17.37;;
54699;SDS011;40599;53.132;6.090;2022-08-19T08:02:09;22.15;;;16.90;;
54699;SDS011;40599;53.132;6.090;2022-08-19T08:04:35;21.55;;;16.60;;
54699;SDS011;40599;53.132;6.090;2022-08-19T08:07:19;28.27;;;17.13;;
54699;SDS011;40599;53.132;6.090;2022-08-19T08:10:07;22.50;;;17.00;;
54699;SDS011;40599;53.132;6.090;2022-08-19T08:12:35;23.93;;;18.60;;
54699;SDS011;40599;53.132;6.090;2022-08-19T08:15:07;23.67;;;18.27;;
54699;SDS011;40599;53.132;6.090;2022-08-19T08:17:36;28.27;;;19.67;;
54699;SDS011;40599;53.132;6.090;2022-08-19T08:20:04;24.80;;;18.80;;
54699;SDS011;40599;53.132;6.090;2022-08-19T08:22:32;24.70;;;18.97;;
54699;SDS011;40599;53.132;6.090;2022-08-19T08:25:17;27.43;;;20.00;;
54699;SDS011;40599;53.132;6.090;2022-08-19T08:27:46;26.63;;;20.70;;
54699;SDS011;40599;53.132;6.090;2022-08-19T08:30:14;23.80;;;20.25;;
54699;SDS011;40599;53.132;6.090;2022-08-19T08:32:44;25.37;;;20.27;;
54699;SDS011;40599;53.132;6.090;2022-08-19T08:37:38;23.77;;;19.30;;
54699;SDS011;40599;53.132;6.090;2022-08-19T08:42:36;25.40;;;19.07;;
54699;SDS011;40599;53.132;6.090;2022-08-19T08:45:14;24.03;;;21.00;;
54699;SDS011;40599;53.132;6.090;2022-08-19T08:47:43;26.17;;;20.47;;
54699;SDS011;40599;53.132;6.090;2022-08-19T08:50:21;22.90;;;20.10;;
54699;SDS011;40599;53.132;6.090;2022-08-19T08:52:52;28.80;;;22.80;;
54699;SDS011;40599;53.132;6.090;2022-08-19T08:55:25;25.97;;;22.63;;
54699;SDS011;40599;53.132;6.090;2022-08-19T08:58:04;26.07;;;21.63;;
54699;SDS011;40599;53.132;6.090;2022-08-19T09:00:39;25.90;;;21.47;;
54699;SDS011;40599;53.132;6.090;2022-08-19T09:38:13;30.10;;;23.73;;
54699;SDS011;40599;53.132;6.090;2022-08-19T09:40:39;31.30;;;23.25;;
54699;SDS011;40599;53.132;6.090;2022-08-19T09:43:06;29.30;;;24.23;;
54699;SDS011;40599;53.132;6.090;2022-08-19T09:45:33;28.83;;;22.57;;
54699;SDS011;40599;53.132;6.090;2022-08-19T09:47:59;22.17;;;18.60;;
54699;SDS011;40599;53.132;6.090;2022-08-19T09:50:25;20.75;;;17.80;;
54699;SDS011;40599;53.132;6.090;2022-08-19T09:52:51;20.90;;;15.95;;
54699;SDS011;40599;53.132;6.090;2022-08-19T09:55:18;18.80;;;14.37;;
54699;SDS011;40599;53.132;6.090;2022-08-19T09:57:44;22.23;;;17.83;;
54699;SDS011;40599;53.132;6.090;2022-08-19T10:00:10;27.30;;;20.30;;
54699;SDS011;40599;53.132;6.090;2022-08-19T10:02:36;24.35;;;18.75;;
54699;SDS011;40599;53.132;6.090;2022-08-19T10:05:02;27.10;;;19.45;;
54699;SDS011;40599;53.132;6.090;2022-08-19T10:07:46;21.53;;;16.40;;
54699;SDS011;40599;53.132;6.090;2022-08-19T10:10:12;20.55;;;16.48;;
54699;SDS011;40599;53.132;6.090;2022-08-19T10:12:38;23.98;;;17.48;;
54699;SDS011;40599;53.132;6.090;2022-08-19T10:15:04;24.00;;;16.80;;
54699;SDS011;40599;53.132;6.090;2022-08-19T10:17:31;24.90;;;18.90;;
54699;SDS011;40599;53.132;6.090;2022-08-19T10:19:58;23.70;;;17.43;;
54699;SDS011;40599;53.132;6.090;2022-08-19T10:24:50;25.23;;;18.47;;
54699;SDS011;40599;53.132;6.090;2022-08-19T10:27:17;27.47;;;19.50;;
54699;SDS011;40599;53.132;6.090;2022-08-19T10:29:43;24.77;;;17.67;;
54699;SDS011;40599;53.132;6.090;2022-08-19T10:32:08;19.38;;;16.25;;
54699;SDS011;40599;53.132;6.090;2022-08-19T10:34:36;24.85;;;17.33;;
54699;SDS011;40599;53.132;6.090;2022-08-19T11:02:19;20.00;;;15.07;;
54699;SDS011;40599;53.132;6.090;2022-08-19T11:04:45;19.33;;;13.70;;
54699;SDS011;40599;53.132;6.090;2022-08-19T11:07:10;18.90;;;13.68;;
54699;SDS011;40599;53.132;6.090;2022-08-19T11:09:40;20.10;;;14.48;;
54699;SDS011;40599;53.132;6.090;2022-08-19T11:12:07;20.67;;;15.40;;
54699;SDS011;40599;53.132;6.090;2022-08-19T11:14:35;21.57;;;14.07;;
54699;SDS011;40599;53.132;6.090;2022-08-19T11:17:02;17.77;;;14.37;;
54699;SDS011;40599;53.132;6.090;2022-08-19T11:19:28;19.00;;;13.60;;
54699;SDS011;40599;53.132;6.090;2022-08-19T11:21:54;21.05;;;13.95;;
54699;SDS011;40599;53.132;6.090;2022-08-19T11:24:21;17.70;;;13.50;;
54699;SDS011;40599;53.132;6.090;2022-08-19T11:26:49;17.90;;;13.50;;
54699;SDS011;40599;53.132;6.090;2022-08-19T11:29:22;19.47;;;13.73;;
54699;SDS011;40599;53.132;6.090;2022-08-19T11:31:50;18.37;;;13.57;;
54699;SDS011;40599;53.132;6.090;2022-08-19T11:36:45;17.83;;;12.87;;
54699;SDS011;40599;53.132;6.090;2022-08-19T11:39:13;20.80;;;13.53;;
54699;SDS011;40599;53.132;6.090;2022-08-19T11:41:40;20.03;;;12.90;;
54699;SDS011;40599;53.132;6.090;2022-08-19T11:44:06;21.80;;;14.55;;
54699;SDS011;40599;53.132;6.090;2022-08-19T11:48:59;21.65;;;13.43;;
54699;SDS011;40599;53.132;6.090;2022-08-19T11:51:28;21.50;;;14.57;;
54699;SDS011;40599;53.132;6.090;2022-08-19T11:53:55;21.37;;;16.17;;
54699;SDS011;40599;53.132;6.090;2022-08-19T11:56:23;24.27;;;17.03;;
54699;SDS011;40599;53.132;6.090;2022-08-19T11:58:50;25.70;;;17.57;;
54699;SDS011;40599;53.132;6.090;2022-08-19T12:01:18;23.37;;;16.23;;
54699;SDS011;40599;53.132;6.090;2022-08-19T12:03:47;27.30;;;18.90;;
54699;SDS011;40599;53.132;6.090;2022-08-19T12:06:17;27.30;;;16.90;;
54699;SDS011;40599;53.132;6.090;2022-08-19T12:08:48;25.43;;;16.20;;
54699;SDS011;40599;53.132;6.090;2022-08-19T12:11:14;25.83;;;18.25;;
54699;SDS011;40599;53.132;6.090;2022-08-19T12:13:40;28.13;;;18.90;;
54699;SDS011;40599;53.132;6.090;2022-08-19T12:16:12;22.80;;;16.43;;
54699;SDS011;40599;53.132;6.090;2022-08-19T12:18:43;16.43;;;11.10;;
54699;SDS011;40599;53.132;6.090;2022-08-19T12:21:13;17.07;;;11.63;;
54699;SDS011;40599;53.132;6.090;2022-08-19T12:23:40;23.90;;;13.93;;
54699;SDS011;40599;53.132;6.090;2022-08-19T12:26:06;23.23;;;14.50;;
54699;SDS011;40599;53.132;6.090;2022-08-19T12:28:34;22.27;;;13.87;;
54699;SDS011;40599;53.132;6.090;2022-08-19T12:31:00;23.88;;;12.52;;
54699;SDS011;40599;53.132;6.090;2022-08-19T12:33:25;21.48;;;13.38;;
54699;SDS011;40599;53.132;6.090;2022-08-19T12:35:53;19.33;;;13.67;;
54699;SDS011;40599;53.132;6.090;2022-08-19T12:38:19;21.95;;;14.20;;
54699;SDS011;40599;53.132;6.090;2022-08-19T12:40:45;19.50;;;13.80;;
54699;SDS011;40599;53.132;6.090;2022-08-19T12:43:11;22.87;;;15.87;;
54699;SDS011;40599;53.132;6.090;2022-08-19T12:45:39;23.10;;;16.93;;
54699;SDS011;40599;53.132;6.090;2022-08-19T12:48:04;29.77;;;19.70;;
54699;SDS011;40599;53.132;6.090;2022-08-19T12:50:30;29.48;;;19.73;;
54699;SDS011;40599;53.132;6.090;2022-08-19T12:52:56;25.85;;;18.75;;
54699;SDS011;40599;53.132;6.090;2022-08-19T12:55:23;34.40;;;23.10;;
54699;SDS011;40599;53.132;6.090;2022-08-19T12:57:50;31.20;;;21.50;;
54699;SDS011;40599;53.132;6.090;2022-08-19T13:00:17;25.85;;;17.83;;
54699;SDS011;40599;53.132;6.090;2022-08-19T13:02:46;23.40;;;15.50;;
54699;SDS011;40599;53.132;6.090;2022-08-19T13:05:17;20.20;;;15.00;;
54699;SDS011;40599;53.132;6.090;2022-08-19T13:07:48;19.53;;;14.17;;
54699;SDS011;40599;53.132;6.090;2022-08-19T13:10:16;20.80;;;14.87;;
54699;SDS011;40599;53.132;6.090;2022-08-19T13:12:45;19.47;;;13.03;;
54699;SDS011;40599;53.132;6.090;2022-08-19T13:15:13;19.33;;;13.37;;
54699;SDS011;40599;53.132;6.090;2022-08-19T13:17:40;18.63;;;15.00;;
54699;SDS011;40599;53.132;6.090;2022-08-19T13:20:09;23.33;;;16.90;;
54699;SDS011;40599;53.132;6.090;2022-08-19T13:22:36;22.53;;;16.13;;
54699;SDS011;40599;53.132;6.090;2022-08-19T13:25:03;24.43;;;16.93;;
54699;SDS011;40599;53.132;6.090;2022-08-19T13:27:30;28.27;;;18.83;;
54699;SDS011;40599;53.132;6.090;2022-08-19T13:29:56;32.40;;;20.60;;
54699;SDS011;40599;53.132;6.090;2022-08-19T13:32:40;25.77;;;18.73;;
54699;SDS011;40599;53.132;6.090;2022-08-19T13:35:25;28.77;;;19.10;;
54699;SDS011;40599;53.132;6.090;2022-08-19T13:37:51;31.33;;;19.25;;
54699;SDS011;40599;53.132;6.090;2022-08-19T13:40:18;27.33;;;17.63;;
54699;SDS011;40599;53.132;6.090;2022-08-19T13:42:48;23.90;;;15.97;;
54699;SDS011;40599;53.132;6.090;2022-08-19T13:45:19;21.87;;;14.80;;
54699;SDS011;40599;53.132;6.090;2022-08-19T13:47:48;18.10;;;14.57;;
54699;SDS011;40599;53.132;6.090;2022-08-19T13:50:16;22.33;;;14.53;;
54699;SDS011;40599;53.132;6.090;2022-08-19T13:52:44;17.83;;;13.40;;
54699;SDS011;40599;53.132;6.090;2022-08-19T13:57:36;18.43;;;13.53;;
54699;SDS011;40599;53.132;6.090;2022-08-19T14:00:09;14.80;;;11.67;;
54699;SDS011;40599;53.132;6.090;2022-08-19T14:02:38;16.73;;;11.07;;
54699;SDS011;40599;53.132;6.090;2022-08-19T14:05:06;16.17;;;11.43;;
54699;SDS011;40599;53.132;6.090;2022-08-19T14:07:33;14.80;;;10.20;;
54699;SDS011;40599;53.132;6.090;2022-08-19T14:09:59;15.75;;;9.70;;
54699;SDS011;40599;53.132;6.090;2022-08-19T14:12:25;14.35;;;7.82;;
54699;SDS011;40599;53.132;6.090;2022-08-19T14:14:51;9.27;;;7.07;;
54699;SDS011;40599;53.132;6.090;2022-08-19T14:17:16;10.10;;;7.32;;
54699;SDS011;40599;53.132;6.090;2022-08-19T14:19:42;10.55;;;6.93;;
54699;SDS011;40599;53.132;6.090;2022-08-19T14:22:08;8.15;;;6.70;;
54699;SDS011;40599;53.132;6.090;2022-08-19T14:24:34;11.63;;;7.75;;
54699;SDS011;40599;53.132;6.090;2022-08-19T14:27:03;14.07;;;7.60;;
54699;SDS011;40599;53.132;6.090;2022-08-19T14:29:29;9.90;;;7.60;;
54699;SDS011;40599;53.132;6.090;2022-08-19T14:31:55;14.48;;;9.98;;
54699;SDS011;40599;53.132;6.090;2022-08-19T14:34:24;16.77;;;9.97;;
54699;SDS011;40599;53.132;6.090;2022-08-19T14:36:51;14.33;;;11.20;;
54699;SDS011;40599;53.132;6.090;2022-08-19T14:41:43;14.33;;;11.70;;
54699;SDS011;40599;53.132;6.090;2022-08-19T14:44:10;15.80;;;11.70;;
54699;SDS011;40599;53.132;6.090;2022-08-19T14:46:37;20.83;;;13.70;;
54699;SDS011;40599;53.132;6.090;2022-08-19T14:49:04;18.20;;;13.17;;
54699;SDS011;40599;53.132;6.090;2022-08-19T14:51:30;18.73;;;13.40;;
54699;SDS011;40599;53.132;6.090;2022-08-19T14:56:23;20.63;;;13.13;;
54699;SDS011;40599;53.132;6.090;2022-08-19T14:58:51;17.50;;;13.23;;
54699;SDS011;40599;53.132;6.090;2022-08-19T15:01:18;20.35;;;13.23;;
54699;SDS011;40599;53.132;6.090;2022-08-19T15:03:45;15.93;;;11.90;;
54699;SDS011;40599;53.132;6.090;2022-08-19T15:06:12;19.90;;;13.03;;
54699;SDS011;40599;53.132;6.090;2022-08-19T15:08:39;16.23;;;12.55;;
54699;SDS011;40599;53.132;6.090;2022-08-19T15:11:09;16.83;;;12.90;;
54699;SDS011;40599;53.132;6.090;2022-08-19T15:13:41;21.30;;;13.33;;
54699;SDS011;40599;53.132;6.090;2022-08-19T15:16:08;18.47;;;13.27;;
54699;SDS011;40599;53.132;6.090;2022-08-19T15:18:35;17.38;;;12.65;;
54699;SDS011;40599;53.132;6.090;2022-08-19T15:21:01;20.50;;;14.85;;
54699;SDS011;40599;53.132;6.090;2022-08-19T15:23:28;16.37;;;12.20;;
54699;SDS011;40599;53.132;6.090;2022-08-19T15:25:54;15.18;;;10.98;;
54699;SDS011;40599;53.132;6.090;2022-08-19T15:28:20;14.38;;;10.90;;
54699;SDS011;40599;53.132;6.090;2022-08-19T15:30:47;12.80;;;10.00;;
54699;SDS011;40599;53.132;6.090;2022-08-19T15:33:12;14.93;;;10.82;;
54699;SDS011;40599;53.132;6.090;2022-08-19T15:35:40;15.60;;;10.77;;
54699;SDS011;40599;53.132;6.090;2022-08-19T15:38:07;15.47;;;12.57;;
54699;SDS011;40599;53.132;6.090;2022-08-19T15:40:33;17.97;;;10.37;;
54699;SDS011;40599;53.132;6.090;2022-08-19T15:42:59;12.13;;;9.40;;
54699;SDS011;40599;53.132;6.090;2022-08-19T15:45:25;9.35;;;7.35;;
54699;SDS011;40599;53.132;6.090;2022-08-19T15:47:57;9.30;;;6.30;;
54699;SDS011;40599;53.132;6.090;2022-08-19T15:50:23;10.07;;;5.70;;
54699;SDS011;40599;53.132;6.090;2022-08-19T15:52:51;8.02;;;5.40;;
54699;SDS011;40599;53.132;6.090;2022-08-19T15:55:20;7.27;;;4.83;;
54699;SDS011;40599;53.132;6.090;2022-08-19T15:57:49;7.67;;;5.40;;
54699;SDS011;40599;53.132;6.090;2022-08-19T16:00:34;6.60;;;4.00;;